Time;durP1;ratioP1;P1;durP2;ratioP2;P2;SDS_P1;SDS_P2;PMS_P1;PMS_P2;Temp;Humidity;BMP_temperature;BMP_pressure;BME280_temperature;BME280_humidity;BME280_pressure;Samples;Min_cycle;Max_cycle;Signal;HPM_P1;HPM_P2
2021/08/30 00:01:48;;;;;;;0.80;0.80;;;23.30;45.20;;;;;;5031286;28;20624;-48
2021/08/30 00:04:15;;;;;;;0.80;0.80;;;23.30;45.20;;;;;;5028210;28;20289;-48
2021/08/30 00:06:41;;;;;;;0.73;0.73;;;23.40;45.20;;;;;;5028888;28;20226;-54
2021/08/30 00:09:08;;;;;;;2.20;1.10;;;23.40;45.20;;;;;;5024895;28;20211;-49
2021/08/30 00:11:34;;;;;;;0.90;0.90;;;23.30;45.20;;;;;;5019243;28;20294;-48
2021/08/30 00:14:01;;;;;;;0.80;0.80;;;23.40;45.20;;;;;;5029419;28;20217;-48
2021/08/30 00:16:27;;;;;;;0.80;0.80;;;23.30;45.10;;;;;;5030289;28;20706;-52
2021/08/30 00:18:54;;;;;;;0.77;0.77;;;23.40;45.20;;;;;;5031944;28;20206;-47
2021/08/30 00:21:20;;;;;;;1.10;1.00;;;23.30;45.20;;;;;;5034047;28;20198;-50
2021/08/30 00:23:47;;;;;;;1.00;0.90;;;23.30;45.10;;;;;;5034271;28;20293;-51
2021/08/30 00:26:13;;;;;;;1.00;1.00;;;23.30;45.10;;;;;;5033442;28;20214;-51
2021/08/30 00:28:40;;;;;;;1.15;0.90;;;23.40;45.20;;;;;;5032824;28;20202;-52
2021/08/30 00:31:06;;;;;;;1.25;0.80;;;23.30;45.10;;;;;;5032573;28;20639;-50
2021/08/30 00:33:33;;;;;;;0.82;0.82;;;23.40;45.20;;;;;;5034450;28;20609;-50
2021/08/30 00:35:59;;;;;;;0.70;0.70;;;23.30;45.10;;;;;;5033815;28;20593;-51
2021/08/30 00:38:26;;;;;;;0.80;0.80;;;23.30;45.10;;;;;;5029849;28;20203;-51
2021/08/30 00:40:52;;;;;;;0.80;0.77;;;23.40;45.20;;;;;;5033996;28;20209;-46
2021/08/30 00:43:18;;;;;;;1.23;0.90;;;23.40;45.20;;;;;;5033004;28;20209;-50
2021/08/30 00:45:45;;;;;;;0.70;0.70;;;23.40;45.20;;;;;;5031639;28;20222;-45
2021/08/30 00:48:11;;;;;;;0.70;0.70;;;23.30;45.10;;;;;;5032287;28;20210;-46
2021/08/30 00:50:38;;;;;;;0.70;0.70;;;23.40;45.20;;;;;;5033456;28;20206;-47
2021/08/30 00:53:04;;;;;;;0.75;0.75;;;23.30;45.10;;;;;;5032955;28;20202;-49
2021/08/30 00:55:31;;;;;;;0.88;0.85;;;23.40;45.20;;;;;;5034074;28;20231;-50
2021/08/30 00:57:58;;;;;;;4.00;1.08;;;23.30;45.10;;;;;;5033401;28;20216;-50
2021/08/30 01:00:24;;;;;;;0.75;0.63;;;23.40;45.20;;;;;;5033738;28;20311;-52
2021/08/30 01:02:50;;;;;;;0.85;0.80;;;23.30;45.10;;;;;;5032862;28;20199;-52
2021/08/30 01:05:17;;;;;;;0.90;0.90;;;23.40;45.10;;;;;;5033111;28;20222;-53
2021/08/30 01:07:43;;;;;;;1.55;0.88;;;23.40;45.10;;;;;;5033293;28;20199;-52
2021/08/30 01:10:10;;;;;;;0.80;0.80;;;23.40;45.10;;;;;;5032099;28;20328;-53
2021/08/30 01:12:36;;;;;;;1.65;0.88;;;23.30;45.00;;;;;;5032751;28;20202;-54
2021/08/30 01:15:03;;;;;;;1.02;0.90;;;23.30;45.00;;;;;;5030989;28;20227;-57
2021/08/30 01:17:29;;;;;;;0.80;0.80;;;23.30;45.00;;;;;;5030921;28;20210;-48
2021/08/30 01:19:56;;;;;;;0.95;0.70;;;23.40;45.10;;;;;;5025457;28;20208;-50
2021/08/30 01:22:22;;;;;;;0.70;0.70;;;23.40;45.10;;;;;;5031121;28;20217;-53
2021/08/30 01:24:48;;;;;;;0.70;0.70;;;23.30;45.00;;;;;;5033421;28;20289;-48
2021/08/30 01:27:15;;;;;;;0.63;0.63;;;23.30;45.00;;;;;;5034255;28;20229;-48
2021/08/30 01:29:41;;;;;;;1.80;0.80;;;23.40;45.70;;;;;;5032663;28;20636;-49
2021/08/30 01:32:08;;;;;;;0.80;0.80;;;23.40;45.00;;;;;;5029936;28;20233;-50
2021/08/30 01:34:34;;;;;;;0.60;0.60;;;23.30;45.00;;;;;;5032184;28;20276;-47
2021/08/30 01:37:01;;;;;;;0.82;0.82;;;23.30;45.00;;;;;;5030845;28;20230;-49
2021/08/30 01:39:30;;;;;;;0.70;0.70;;;23.30;44.90;;;;;;5023796;28;20203;-47
2021/08/30 01:41:57;;;;;;;0.75;0.70;;;23.40;45.10;;;;;;5028093;28;20659;-49
2021/08/30 01:44:23;;;;;;;1.00;0.90;;;23.30;45.00;;;;;;5034193;28;20206;-51
2021/08/30 01:46:49;;;;;;;0.93;0.90;;;23.30;45.00;;;;;;5038072;28;20219;-50
2021/08/30 01:49:16;;;;;;;1.00;0.88;;;23.30;45.00;;;;;;5031025;28;20213;-53
2021/08/30 01:51:42;;;;;;;0.90;0.77;;;23.30;45.00;;;;;;5030915;28;20204;-50
2021/08/30 01:54:09;;;;;;;1.00;0.70;;;23.40;45.10;;;;;;5033240;28;20201;-50
2021/08/30 01:56:38;;;;;;;0.70;0.70;;;23.40;45.10;;;;;;5031885;28;20238;-51
2021/08/30 02:01:49;;;;;;;0.60;0.60;;;23.40;45.10;;;;;;5035943;28;20275;-49
2021/08/30 02:04:15;;;;;;;0.80;0.80;;;23.40;45.00;;;;;;5031527;28;20205;-52
2021/08/30 02:06:42;;;;;;;0.70;0.70;;;23.40;45.00;;;;;;5032172;28;20218;-49
2021/08/30 02:09:08;;;;;;;0.93;0.90;;;23.40;45.10;;;;;;5029317;28;20298;-52
2021/08/30 02:11:35;;;;;;;0.80;0.80;;;23.40;45.10;;;;;;5026867;28;20232;-47
2021/08/30 02:14:02;;;;;;;0.70;0.70;;;23.40;45.10;;;;;;5030686;28;20300;-49
2021/08/30 02:16:28;;;;;;;0.95;0.90;;;23.40;45.10;;;;;;5030440;28;20768;-49
2021/08/30 02:18:55;;;;;;;0.70;0.70;;;23.40;45.10;;;;;;5032015;28;20233;-51
2021/08/30 02:21:21;;;;;;;0.75;0.75;;;23.40;45.10;;;;;;5031479;28;20285;-48
2021/08/30 02:23:48;;;;;;;0.77;0.77;;;23.30;45.00;;;;;;5031719;28;20202;-55
2021/08/30 02:26:14;;;;;;;0.82;0.80;;;23.40;45.10;;;;;;5030932;28;20229;-50
2021/08/30 02:28:41;;;;;;;0.70;0.70;;;23.40;45.10;;;;;;5013127;28;20216;-49
2021/08/30 02:31:07;;;;;;;0.82;0.82;;;23.30;45.00;;;;;;5029881;28;20203;-51
2021/08/30 02:33:34;;;;;;;1.08;1.05;;;23.30;45.00;;;;;;5031525;28;20202;-56
2021/08/30 02:36:03;;;;;;;0.85;0.85;;;23.40;45.10;;;;;;5030699;28;20242;-55
2021/08/30 02:38:30;;;;;;;0.82;0.82;;;23.40;45.10;;;;;;5030433;28;20634;-54
2021/08/30 02:40:56;;;;;;;0.70;0.70;;;23.40;45.00;;;;;;5028988;28;20586;-52
2021/08/30 02:43:23;;;;;;;0.80;0.80;;;23.40;45.00;;;;;;5032111;28;20861;-55
2021/08/30 02:45:49;;;;;;;0.70;0.70;;;23.40;45.00;;;;;;5023514;28;20746;-53
2021/08/30 02:48:16;;;;;;;0.93;0.70;;;23.30;45.00;;;;;;5030713;28;20205;-51
2021/08/30 02:50:42;;;;;;;0.70;0.70;;;23.30;45.00;;;;;;5030833;28;20236;-55
2021/08/30 02:53:08;;;;;;;0.70;0.70;;;23.40;45.10;;;;;;5031282;28;20206;-51
2021/08/30 02:55:35;;;;;;;0.82;0.80;;;23.30;45.00;;;;;;5031424;28;20234;-55
2021/08/30 02:58:03;;;;;;;1.13;0.80;;;23.40;45.10;;;;;;5030261;28;20206;-52
2021/08/30 03:00:30;;;;;;;0.93;0.80;;;23.40;45.10;;;;;;5030369;28;20202;-51
2021/08/30 03:02:56;;;;;;;0.80;0.80;;;23.40;45.00;;;;;;5031739;28;20750;-53
2021/08/30 03:05:23;;;;;;;0.88;0.88;;;23.40;45.10;;;;;;5030773;28;20694;-53
2021/08/30 03:07:49;;;;;;;0.60;0.60;;;23.40;45.00;;;;;;5031601;28;20202;-53
2021/08/30 03:10:16;;;;;;;0.95;0.93;;;23.40;45.10;;;;;;5029849;28;20202;-55
2021/08/30 03:12:42;;;;;;;0.80;0.80;;;23.30;45.10;;;;;;5031693;28;20199;-54
2021/08/30 03:15:08;;;;;;;1.65;1.00;;;23.40;45.20;;;;;;5030405;28;20238;-52
2021/08/30 03:17:35;;;;;;;0.98;0.98;;;23.40;45.20;;;;;;5030028;28;20210;-54
2021/08/30 03:20:01;;;;;;;1.15;0.70;;;23.30;45.10;;;;;;5029902;28;20206;-55
2021/08/30 03:22:28;;;;;;;1.00;0.80;;;23.40;45.20;;;;;;5031195;28;20745;-55
2021/08/30 03:24:54;;;;;;;0.70;0.70;;;23.30;45.10;;;;;;5029471;28;20225;-51
2021/08/30 03:27:21;;;;;;;0.77;0.77;;;23.30;45.20;;;;;;5031528;28;20551;-54
2021/08/30 03:29:47;;;;;;;1.00;0.90;;;23.40;45.20;;;;;;5029758;28;20560;-51
2021/08/30 03:32:13;;;;;;;1.00;1.00;;;23.30;45.20;;;;;;5029358;28;20305;-49
2021/08/30 03:34:40;;;;;;;1.40;0.80;;;23.30;45.20;;;;;;5029181;28;20201;-52
2021/08/30 03:37:07;;;;;;;1.08;0.80;;;23.30;45.20;;;;;;5029865;28;20666;-53
2021/08/30 03:39:33;;;;;;;0.77;0.70;;;23.40;45.20;;;;;;5029462;28;20728;-51
2021/08/30 03:42:02;;;;;;;0.80;0.80;;;23.40;45.20;;;;;;5030614;28;20600;-52
2021/08/30 03:44:28;;;;;;;0.70;0.70;;;23.30;45.10;;;;;;5028054;28;20194;-57
2021/08/30 03:46:55;;;;;;;0.70;0.70;;;23.30;45.20;;;;;;5030933;28;20264;-48
2021/08/30 03:49:21;;;;;;;0.80;0.80;;;23.30;45.10;;;;;;5029381;28;20212;-55
2021/08/30 03:51:48;;;;;;;1.00;0.70;;;23.30;45.10;;;;;;5031270;28;20237;-54
2021/08/30 03:54:14;;;;;;;0.70;0.70;;;23.30;45.10;;;;;;5027191;28;20209;-53
2021/08/30 03:56:41;;;;;;;1.27;0.70;;;23.30;45.10;;;;;;5029962;28;20246;-57
2021/08/30 03:59:07;;;;;;;0.95;0.90;;;23.30;45.20;;;;;;5030094;28;20205;-54
2021/08/30 04:01:34;;;;;;;1.58;0.82;;;23.40;45.20;;;;;;5030115;28;20286;-53
2021/08/30 04:04:00;;;;;;;0.88;0.80;;;23.30;45.10;;;;;;5026893;28;20667;-53
2021/08/30 04:06:29;;;;;;;0.70;0.70;;;23.30;45.10;;;;;;5029682;28;20277;-52
2021/08/30 04:08:56;;;;;;;0.70;0.70;;;23.30;45.20;;;;;;5029588;28;20576;-52
2021/08/30 04:11:22;;;;;;;0.70;0.70;;;23.40;45.20;;;;;;5031026;28;20198;-48
2021/08/30 04:13:49;;;;;;;0.75;0.75;;;23.40;45.20;;;;;;5027408;28;20207;-49
2021/08/30 04:16:15;;;;;;;0.80;0.80;;;23.40;45.20;;;;;;5028090;28;20234;-49
2021/08/30 04:18:42;;;;;;;1.40;0.80;;;23.30;45.10;;;;;;5028608;28;20242;-51
2021/08/30 04:21:08;;;;;;;0.70;0.70;;;23.30;45.10;;;;;;5030137;28;20191;-54
2021/08/30 04:23:34;;;;;;;0.90;0.90;;;23.30;45.10;;;;;;5030428;28;20208;-51
2021/08/30 04:26:01;;;;;;;0.70;0.70;;;23.40;45.20;;;;;;5028647;28;20343;-51
2021/08/30 04:28:27;;;;;;;0.63;0.60;;;23.30;45.10;;;;;;5030727;28;20199;-50
2021/08/30 04:30:54;;;;;;;0.73;0.73;;;23.40;45.20;;;;;;5027191;28;20198;-53
2021/08/30 04:33:21;;;;;;;0.90;0.90;;;23.40;45.20;;;;;;5029704;28;20207;-49
2021/08/30 04:35:48;;;;;;;0.80;0.80;;;23.30;45.10;;;;;;5029495;28;20267;-53
2021/08/30 04:38:14;;;;;;;0.88;0.88;;;23.30;45.10;;;;;;5029723;28;20211;-47
2021/08/30 04:40:41;;;;;;;0.80;0.80;;;23.30;45.10;;;;;;5029668;28;20202;-52
2021/08/30 04:43:07;;;;;;;0.70;0.70;;;23.30;45.10;;;;;;5028220;28;20213;-54
2021/08/30 04:45:34;;;;;;;0.93;0.80;;;23.40;45.20;;;;;;5029354;28;20309;-56
2021/08/30 04:48:00;;;;;;;0.90;0.90;;;23.30;45.10;;;;;;5029272;28;20281;-49
2021/08/30 04:50:26;;;;;;;0.80;0.80;;;23.30;45.10;;;;;;5030000;28;20573;-54
2021/08/30 04:52:53;;;;;;;1.55;0.80;;;23.30;45.10;;;;;;5027724;28;21796;-51
2021/08/30 04:55:19;;;;;;;0.77;0.77;;;23.40;45.20;;;;;;5027017;28;20249;-51
2021/08/30 04:57:46;;;;;;;0.80;0.80;;;23.30;45.10;;;;;;5030742;28;20202;-53
2021/08/30 05:00:13;;;;;;;0.70;0.70;;;23.40;45.20;;;;;;5027941;28;20199;-50
2021/08/30 05:02:40;;;;;;;0.80;0.80;;;23.30;45.10;;;;;;5030263;28;20241;-51
2021/08/30 05:05:06;;;;;;;0.80;0.80;;;23.30;45.10;;;;;;5031284;28;20226;-50
2021/08/30 05:07:33;;;;;;;0.82;0.82;;;23.30;45.10;;;;;;5033638;28;20198;-50
2021/08/30 05:09:59;;;;;;;0.70;0.70;;;23.30;45.10;;;;;;5032900;28;20637;-48
2021/08/30 05:12:27;;;;;;;1.08;0.82;;;23.30;45.10;;;;;;5033239;28;20277;-48
2021/08/30 05:14:53;;;;;;;1.48;1.10;;;23.40;45.20;;;;;;5046834;22;20260;-54
2021/08/30 05:17:19;;;;;;;0.68;0.68;;;23.30;45.70;;;;;;5032797;28;20336;-53
2021/08/30 05:19:46;;;;;;;0.70;0.70;;;23.30;45.10;;;;;;5032307;28;20208;-51
2021/08/30 05:22:13;;;;;;;0.77;0.75;;;23.30;45.10;;;;;;5033600;28;20212;-50
2021/08/30 05:24:40;;;;;;;0.93;0.85;;;23.30;45.10;;;;;;5031017;28;20313;-52
2021/08/30 05:27:06;;;;;;;0.75;0.75;;;23.30;45.10;;;;;;5032408;28;20206;-49
2021/08/30 05:29:33;;;;;;;0.80;0.80;;;23.30;45.10;;;;;;5031483;28;20202;-48
2021/08/30 05:31:59;;;;;;;0.85;0.80;;;23.30;45.10;;;;;;5029999;28;20208;-45
2021/08/30 05:34:26;;;;;;;0.80;0.80;;;23.30;45.10;;;;;;5032398;28;20209;-48
2021/08/30 05:36:52;;;;;;;1.23;0.80;;;23.40;45.20;;;;;;5031361;28;20226;-51
2021/08/30 05:39:18;;;;;;;1.60;0.90;;;23.30;45.20;;;;;;5032809;28;20222;-47
2021/08/30 05:41:45;;;;;;;0.60;0.60;;;23.40;45.30;;;;;;5031432;28;20201;-48
2021/08/30 05:44:11;;;;;;;1.42;0.80;;;23.40;45.30;;;;;;5032861;28;20205;-51
2021/08/30 05:46:38;;;;;;;0.75;0.75;;;23.30;45.20;;;;;;5032322;28;20207;-50
2021/08/30 05:49:04;;;;;;;0.90;0.90;;;23.40;45.30;;;;;;5032945;28;20238;-52
2021/08/30 05:51:31;;;;;;;0.88;0.70;;;23.40;45.30;;;;;;5032247;28;20202;-53
2021/08/30 05:53:57;;;;;;;2.05;0.80;;;23.30;45.20;;;;;;5032105;28;20206;-51
2021/08/30 05:56:24;;;;;;;0.82;0.70;;;23.30;45.20;;;;;;5032102;28;20241;-53
2021/08/30 05:58:50;;;;;;;0.68;0.68;;;23.40;45.40;;;;;;5033079;28;20245;-52
2021/08/30 06:01:17;;;;;;;0.75;0.73;;;23.30;45.20;;;;;;5032095;28;20218;-49
2021/08/30 06:03:43;;;;;;;0.85;0.82;;;23.30;45.20;;;;;;5032391;28;20209;-52
2021/08/30 06:06:10;;;;;;;1.33;0.80;;;23.30;45.20;;;;;;5031949;28;20222;-53
2021/08/30 06:08:36;;;;;;;0.93;0.80;;;23.30;45.20;;;;;;5030620;28;20202;-54
2021/08/30 06:11:03;;;;;;;1.15;0.80;;;23.30;45.20;;;;;;5032615;28;20206;-51
2021/08/30 06:13:29;;;;;;;0.93;0.88;;;23.30;45.20;;;;;;5032017;28;20209;-51
2021/08/30 06:15:55;;;;;;;0.80;0.80;;;23.30;45.90;;;;;;5031439;28;20321;-53
2021/08/30 06:18:22;;;;;;;1.70;0.70;;;23.30;45.20;;;;;;5031716;28;20199;-53
2021/08/30 06:20:48;;;;;;;1.40;0.80;;;23.30;45.20;;;;;;5032041;28;20202;-51
2021/08/30 06:23:15;;;;;;;1.27;0.85;;;23.30;45.20;;;;;;5030843;28;20205;-48
2021/08/30 06:25:41;;;;;;;0.70;0.70;;;23.30;45.20;;;;;;5030978;28;20218;-51
2021/08/30 06:28:08;;;;;;;0.95;0.75;;;23.30;45.20;;;;;;5035962;28;20194;-51
2021/08/30 06:30:35;;;;;;;0.80;0.80;;;23.30;45.20;;;;;;5031887;28;20202;-53
2021/08/30 06:33:01;;;;;;;1.02;0.80;;;23.30;45.30;;;;;;5028822;28;20229;-53
2021/08/30 06:35:27;;;;;;;0.93;0.68;;;23.30;45.90;;;;;;5030832;28;20225;-49
2021/08/30 06:37:54;;;;;;;0.80;0.80;;;23.30;45.30;;;;;;5032320;28;20214;-50
2021/08/30 06:40:23;;;;;;;0.70;0.70;;;23.30;45.30;;;;;;5030711;28;20293;-53
2021/08/30 06:42:49;;;;;;;0.75;0.75;;;23.30;45.30;;;;;;5032280;28;20206;-50
2021/08/30 06:45:16;;;;;;;0.70;0.70;;;23.30;45.30;;;;;;5030299;28;20228;-51
2021/08/30 06:47:42;;;;;;;0.70;0.70;;;23.30;46.00;;;;;;5031573;28;20576;-53
2021/08/30 06:50:09;;;;;;;0.85;0.77;;;23.30;45.30;;;;;;5030286;28;20720;-52
2021/08/30 06:52:35;;;;;;;0.90;0.77;;;23.30;45.60;;;;;;5026720;28;20309;-50
2021/08/30 06:55:02;;;;;;;0.80;0.80;;;23.30;45.70;;;;;;5037262;28;20720;-50
2021/08/30 06:57:31;;;;;;;1.20;0.68;;;23.30;45.80;;;;;;5035144;28;20820;-51
2021/08/30 06:59:57;;;;;;;1.23;0.80;;;23.30;46.20;;;;;;5027711;28;20738;-51
2021/08/30 07:02:24;;;;;;;3.05;0.95;;;23.30;46.00;;;;;;5036000;28;20571;-44
2021/08/30 07:04:50;;;;;;;2.05;0.98;;;23.30;46.20;;;;;;5031090;28;20592;-44
2021/08/30 07:07:17;;;;;;;0.90;0.90;;;23.30;46.20;;;;;;5040089;28;20288;-43
2021/08/30 07:09:43;;;;;;;2.20;0.80;;;23.30;46.20;;;;;;5025958;28;20207;-43
2021/08/30 07:12:09;;;;;;;2.10;1.40;;;23.30;46.10;;;;;;5029520;28;20202;-45
2021/08/30 07:14:36;;;;;;;2.65;0.90;;;23.30;46.10;;;;;;5041054;28;20230;-44
2021/08/30 07:17:02;;;;;;;1.58;1.00;;;23.30;46.40;;;;;;5039715;28;20238;-44
2021/08/30 07:19:29;;;;;;;0.80;0.80;;;22.50;44.30;;;;;;5033057;28;20293;-45
2021/08/30 07:21:55;;;;;;;0.98;0.80;;;21.80;44.90;;;;;;5030451;28;20194;-45
2021/08/30 07:24:22;;;;;;;0.70;0.70;;;21.40;46.00;;;;;;5045845;28;20223;-46
2021/08/30 07:26:48;;;;;;;1.05;0.88;;;21.30;45.60;;;;;;5028652;28;20300;-47
2021/08/30 07:29:15;;;;;;;1.60;0.80;;;21.20;46.10;;;;;;5036893;28;20198;-47
2021/08/30 07:31:41;;;;;;;0.95;0.80;;;21.70;45.60;;;;;;5025777;28;20198;-46
2021/08/30 07:34:08;;;;;;;1.55;0.70;;;22.10;45.10;;;;;;5040063;28;20222;-49
2021/08/30 07:36:34;;;;;;;0.90;0.90;;;22.40;45.10;;;;;;5033445;28;20470;-49
2021/08/30 07:39:01;;;;;;;1.52;0.90;;;22.50;45.00;;;;;;5028105;28;20539;-48
2021/08/30 07:41:27;;;;;;;0.82;0.80;;;22.60;45.00;;;;;;5026006;28;20352;-50
2021/08/30 07:43:54;;;;;;;3.13;0.90;;;22.70;45.10;;;;;;5028361;28;20202;-51
2021/08/30 07:46:20;;;;;;;0.90;0.90;;;22.70;45.00;;;;;;5030260;28;20202;-52
2021/08/30 07:48:47;;;;;;;0.82;0.82;;;22.70;45.00;;;;;;5029523;28;20198;-49
2021/08/30 07:51:13;;;;;;;1.25;0.93;;;22.80;45.30;;;;;;5030081;28;20198;-45
2021/08/30 07:53:40;;;;;;;0.80;0.80;;;22.80;45.10;;;;;;5028864;28;20203;-48
2021/08/30 07:56:07;;;;;;;1.35;0.80;;;22.80;45.00;;;;;;5029376;28;20222;-46
2021/08/30 07:58:33;;;;;;;0.82;0.82;;;22.80;45.10;;;;;;5029345;28;20232;-46
2021/08/30 08:01:00;;;;;;;1.00;1.00;;;22.90;45.10;;;;;;5027788;28;20203;-46
2021/08/30 08:03:26;;;;;;;0.70;0.70;;;22.80;44.90;;;;;;5025916;28;20207;-50
2021/08/30 08:05:53;;;;;;;1.00;0.90;;;22.80;44.90;;;;;;5028288;28;20219;-46
2021/08/30 08:08:19;;;;;;;1.13;0.80;;;22.90;45.10;;;;;;5036545;28;20203;-51
2021/08/30 08:10:45;;;;;;;0.93;0.70;;;22.90;45.10;;;;;;5028841;28;20224;-46
2021/08/30 08:13:12;;;;;;;3.72;1.20;;;22.90;45.10;;;;;;5026621;28;20229;-47
2021/08/30 08:15:38;;;;;;;0.70;0.70;;;22.90;45.10;;;;;;5024124;28;20237;-46
2021/08/30 08:18:05;;;;;;;1.00;0.90;;;23.00;45.90;;;;;;5014257;28;20234;-48
2021/08/30 08:20:31;;;;;;;0.98;0.88;;;23.00;45.00;;;;;;5021990;28;20306;-52
2021/08/30 08:22:58;;;;;;;0.93;0.90;;;23.00;45.10;;;;;;5038144;28;20202;-50
2021/08/30 08:25:24;;;;;;;0.82;0.82;;;23.00;45.10;;;;;;5035206;28;20223;-47
2021/08/30 08:27:51;;;;;;;0.80;0.77;;;23.00;45.00;;;;;;5023173;28;20199;-46
2021/08/30 08:30:17;;;;;;;0.70;0.70;;;23.00;45.00;;;;;;5029315;28;20208;-46
2021/08/30 08:32:45;;;;;;;0.93;0.80;;;23.00;45.00;;;;;;5025099;28;20208;-46
2021/08/30 08:35:11;;;;;;;1.10;0.80;;;23.00;45.00;;;;;;5026959;28;20313;-44
2021/08/30 08:37:38;;;;;;;1.63;0.88;;;23.10;45.00;;;;;;5013200;28;20230;-51
2021/08/30 08:40:04;;;;;;;1.10;0.80;;;23.10;45.10;;;;;;5016378;28;20209;-45
2021/08/30 08:42:30;;;;;;;1.27;0.73;;;23.10;45.30;;;;;;5029499;28;20198;-51
2021/08/30 08:44:57;;;;;;;0.70;0.70;;;23.10;45.20;;;;;;5037239;28;20223;-48
2021/08/30 08:47:23;;;;;;;0.70;0.70;;;23.10;45.00;;;;;;5033658;28;20206;-49
2021/08/30 08:49:52;;;;;;;0.95;0.80;;;23.10;45.20;;;;;;5034650;28;20294;-50
2021/08/30 08:52:18;;;;;;;0.70;0.70;;;23.10;45.40;;;;;;5027719;28;20572;-48
2021/08/30 08:54:44;;;;;;;1.05;0.90;;;23.10;45.20;;;;;;5031483;28;20639;-45
2021/08/30 08:57:11;;;;;;;0.70;0.70;;;23.20;45.40;;;;;;5033068;28;20585;-50
2021/08/30 08:59:37;;;;;;;2.35;0.82;;;23.20;45.20;;;;;;5042063;28;20476;-47
2021/08/30 09:02:04;;;;;;;0.80;0.80;;;23.20;45.30;;;;;;5039954;28;20576;-51
2021/08/30 09:04:30;;;;;;;2.05;0.95;;;23.20;45.10;;;;;;5034945;28;20608;-52
2021/08/30 09:06:57;;;;;;;1.08;0.98;;;23.20;45.20;;;;;;5041441;28;20209;-52
2021/08/30 09:09:26;;;;;;;1.45;0.80;;;23.20;45.10;;;;;;5032040;28;20202;-51
2021/08/30 09:11:56;;;;;;;2.40;0.77;;;23.30;45.30;;;;;;5031298;28;20244;-47
2021/08/30 09:14:22;;;;;;;0.98;0.98;;;23.20;46.00;;;;;;5035959;28;20244;-52
2021/08/30 09:16:49;;;;;;;2.28;0.85;;;23.20;45.40;;;;;;5015471;28;20237;-51
2021/08/30 09:19:15;;;;;;;1.00;0.90;;;23.20;45.40;;;;;;5027840;28;20201;-50
2021/08/30 09:21:42;;;;;;;0.90;0.90;;;23.20;45.50;;;;;;5033788;28;20205;-48
2021/08/30 09:24:08;;;;;;;0.80;0.80;;;23.10;45.40;;;;;;5025963;28;20226;-48
2021/08/30 09:26:35;;;;;;;0.70;0.70;;;23.20;45.80;;;;;;5033332;28;20204;-49
2021/08/30 09:29:02;;;;;;;0.75;0.75;;;23.20;45.60;;;;;;5025733;28;20309;-49
2021/08/30 09:31:28;;;;;;;2.15;0.80;;;23.20;45.60;;;;;;5029841;28;20207;-56
2021/08/30 09:33:54;;;;;;;1.25;0.90;;;23.30;45.60;;;;;;5027474;28;20221;-52
2021/08/30 09:36:21;;;;;;;1.10;0.82;;;23.30;45.40;;;;;;5028812;28;20214;-58
2021/08/30 09:38:47;;;;;;;0.93;0.93;;;23.30;45.30;;;;;;5024915;28;20253;-54
2021/08/30 09:41:14;;;;;;;0.80;0.70;;;23.30;45.40;;;;;;5033421;28;21172;-52
2021/08/30 09:43:40;;;;;;;1.33;0.90;;;23.30;45.40;;;;;;5031625;28;20218;-53
2021/08/30 09:46:08;;;;;;;1.02;0.93;;;23.30;45.50;;;;;;5031723;28;20256;-51
2021/08/30 09:48:35;;;;;;;3.28;1.73;;;23.30;45.50;;;;;;5029955;28;20573;-49
2021/08/30 09:51:01;;;;;;;0.95;0.85;;;23.30;45.40;;;;;;5031127;28;20214;-50
2021/08/30 09:53:28;;;;;;;1.00;0.90;;;23.30;45.70;;;;;;5033195;28;20305;-45
2021/08/30 09:55:54;;;;;;;1.02;0.93;;;23.30;45.50;;;;;;5034635;28;20577;-50
2021/08/30 09:58:23;;;;;;;0.85;0.70;;;23.30;45.60;;;;;;5032708;28;20724;-49
2021/08/30 10:00:50;;;;;;;1.38;0.80;;;23.30;45.60;;;;;;5032547;28;20198;-48
2021/08/30 10:03:16;;;;;;;1.98;0.80;;;23.20;45.60;;;;;;5023208;28;20231;-47
2021/08/30 10:05:42;;;;;;;0.98;0.90;;;23.20;45.80;;;;;;5032431;28;20208;-49
2021/08/30 10:08:09;;;;;;;1.98;1.00;;;23.20;45.80;;;;;;5032532;28;20202;-46
2021/08/30 10:10:35;;;;;;;0.77;0.70;;;23.10;45.70;;;;;;5032073;28;20210;-52
2021/08/30 10:13:02;;;;;;;0.70;0.70;;;23.10;45.70;;;;;;5032296;28;20224;-49
2021/08/30 10:15:28;;;;;;;1.63;0.90;;;23.10;45.70;;;;;;5032029;28;20288;-46
2021/08/30 10:17:55;;;;;;;0.82;0.82;;;23.10;45.70;;;;;;5032227;28;20325;-47
2021/08/30 10:20:22;;;;;;;0.70;0.70;;;23.10;45.70;;;;;;5022882;28;20268;-47
2021/08/30 10:22:49;;;;;;;2.15;0.80;;;23.10;45.80;;;;;;5029169;28;20198;-44
2021/08/30 10:25:15;;;;;;;1.45;0.70;;;23.20;61.30;;;;;;5035576;28;20556;-46
2021/08/30 10:27:41;;;;;;;1.10;1.00;;;23.20;60.80;;;;;;5033157;28;20194;-45
2021/08/30 10:30:08;;;;;;;2.33;1.15;;;23.20;60.80;;;;;;5029740;28;20218;-47
2021/08/30 10:32:34;;;;;;;1.58;1.40;;;23.20;60.80;;;;;;5028241;28;20221;-47
2021/08/30 10:35:01;;;;;;;1.15;0.88;;;23.20;61.00;;;;;;5036249;28;20226;-46
2021/08/30 10:37:27;;;;;;;0.90;0.90;;;23.20;60.90;;;;;;5032648;28;20276;-48
2021/08/30 10:39:54;;;;;;;0.80;0.80;;;23.20;60.90;;;;;;5037894;28;20210;-50
2021/08/30 10:42:21;;;;;;;0.98;0.90;;;23.20;60.80;;;;;;5031319;28;20260;-54
2021/08/30 10:44:47;;;;;;;1.52;1.00;;;23.20;60.80;;;;;;5047537;28;20226;-48
2021/08/30 10:47:14;;;;;;;0.80;0.80;;;23.20;60.80;;;;;;5032361;28;20221;-50
2021/08/30 10:49:40;;;;;;;3.22;0.80;;;23.20;60.80;;;;;;5030521;28;20296;-48
2021/08/30 10:52:07;;;;;;;0.60;0.60;;;23.20;60.60;;;;;;5029282;28;20207;-49
2021/08/30 10:54:33;;;;;;;1.45;1.00;;;23.30;60.60;;;;;;5035953;28;20757;-46
2021/08/30 10:56:59;;;;;;;1.10;1.00;;;23.30;60.80;;;;;;5035454;28;20650;-50
2021/08/30 10:59:26;;;;;;;2.08;1.00;;;23.30;60.60;;;;;;5020637;28;20570;-49
2021/08/30 11:01:53;;;;;;;0.90;0.75;;;23.30;60.40;;;;;;5023548;28;20207;-50
2021/08/30 11:04:19;;;;;;;0.70;0.70;;;23.30;60.20;;;;;;5026093;28;20226;-49
2021/08/30 11:06:45;;;;;;;0.80;0.80;;;23.30;60.10;;;;;;5030206;28;20202;-44
2021/08/30 11:09:12;;;;;;;1.77;0.80;;;23.30;60.50;;;;;;5038965;28;20208;-42
2021/08/30 11:11:38;;;;;;;0.82;0.80;;;23.40;60.40;;;;;;5034395;28;20202;-46
2021/08/30 11:14:05;;;;;;;0.88;0.80;;;23.40;60.30;;;;;;5034330;28;20249;-44
2021/08/30 11:16:31;;;;;;;0.93;0.88;;;23.40;60.20;;;;;;5037939;28;20222;-41
2021/08/30 11:18:58;;;;;;;0.88;0.80;;;23.40;60.20;;;;;;5030057;28;20237;-46
2021/08/30 11:21:24;;;;;;;0.70;0.70;;;23.40;60.20;;;;;;5047189;28;20194;-41
2021/08/30 11:23:51;;;;;;;0.85;0.77;;;23.40;60.30;;;;;;5037575;28;20214;-44
2021/08/30 11:26:17;;;;;;;1.40;1.02;;;23.40;60.40;;;;;;5049684;28;20206;-42
2021/08/30 11:28:44;;;;;;;1.00;0.77;;;23.40;60.30;;;;;;5036132;28;20201;-45
2021/08/30 11:31:10;;;;;;;1.25;0.82;;;23.40;60.40;;;;;;5041984;28;20202;-42
2021/08/30 11:33:36;;;;;;;1.35;0.80;;;23.40;60.70;;;;;;5028954;28;20228;-44
2021/08/30 11:36:03;;;;;;;1.25;1.13;;;23.40;60.80;;;;;;5029387;28;20240;-41
2021/08/30 11:38:29;;;;;;;1.88;1.30;;;23.40;61.00;;;;;;5027492;28;20226;-42
2021/08/30 11:40:56;;;;;;;1.30;1.20;;;23.30;60.90;;;;;;5029375;28;20204;-42
2021/08/30 11:43:22;;;;;;;2.35;1.50;;;23.40;61.00;;;;;;5030168;28;20215;-44
2021/08/30 11:45:49;;;;;;;1.73;1.40;;;23.30;60.90;;;;;;5028480;28;20194;-44
2021/08/30 11:48:15;;;;;;;1.48;1.38;;;23.40;61.00;;;;;;5029787;28;20232;-41
2021/08/30 11:50:42;;;;;;;1.23;1.13;;;23.40;61.20;;;;;;5029292;28;20198;-43
2021/08/30 11:53:08;;;;;;;4.30;1.40;;;23.30;61.40;;;;;;5029586;28;20228;-41
2021/08/30 11:55:35;;;;;;;1.95;1.58;;;23.40;61.60;;;;;;5039402;28;20198;-41
2021/08/30 11:58:01;;;;;;;1.55;1.45;;;23.40;61.90;;;;;;5029326;28;20252;-43
2021/08/30 12:00:28;;;;;;;1.20;1.10;;;23.40;61.80;;;;;;5029929;28;20294;-42
2021/08/30 12:02:54;;;;;;;1.50;1.40;;;23.40;61.90;;;;;;5030492;28;20218;-42
2021/08/30 12:05:21;;;;;;;2.58;1.60;;;23.40;62.20;;;;;;5029762;28;20209;-43
2021/08/30 12:07:47;;;;;;;1.40;1.30;;;23.40;62.50;;;;;;5034632;28;20675;-42
2021/08/30 12:10:13;;;;;;;2.13;1.58;;;23.40;62.80;;;;;;5031323;28;20684;-41
2021/08/30 12:12:53;;;;;;;1.33;1.23;;;23.40;63.20;;;;;;5041612;28;20221;-43
2021/08/30 12:15:19;;;;;;;1.50;1.40;;;23.40;63.50;;;;;;5028746;28;20220;-42
2021/08/30 12:17:47;;;;;;;2.40;1.67;;;23.40;63.90;;;;;;5032647;28;20229;-42
2021/08/30 12:20:13;;;;;;;2.08;1.38;;;23.40;64.30;;;;;;5038077;28;20201;-41
2021/08/30 12:22:40;;;;;;;1.60;1.27;;;23.40;64.90;;;;;;5043143;28;20221;-41
2021/08/30 12:25:06;;;;;;;2.35;1.10;;;23.40;65.30;;;;;;5035570;28;20212;-42
2021/08/30 12:27:33;;;;;;;1.88;1.25;;;23.40;64.10;;;;;;5033109;28;20202;-46
2021/08/30 12:29:59;;;;;;;1.63;1.20;;;23.40;63.50;;;;;;5036522;28;20210;-42
2021/08/30 12:32:26;;;;;;;2.83;2.13;;;23.40;63.30;;;;;;5034542;28;20202;-44
2021/08/30 12:34:52;;;;;;;2.03;1.20;;;23.40;63.10;;;;;;5032450;28;20195;-47
2021/08/30 12:37:19;;;;;;;1.85;1.33;;;23.40;63.20;;;;;;5034311;28;20213;-42
2021/08/30 12:39:45;;;;;;;1.73;1.13;;;23.40;63.20;;;;;;5037754;28;20200;-43
2021/08/30 12:42:12;;;;;;;1.30;1.20;;;23.40;62.80;;;;;;5045283;28;20203;-43
2021/08/30 12:44:38;;;;;;;1.60;1.30;;;23.40;63.10;;;;;;5028034;28;20714;-45
2021/08/30 12:47:04;;;;;;;2.05;1.13;;;23.40;62.90;;;;;;5032207;28;20651;-45